Shreveport, LA (71107)

7:28 PM CDT on April 01, 2015 (GMT -0500)
Northwood CC Area | | Change Station
CLOSE
Current Station
Personal Weather Station
Location: Blanchard, LA
Elevation: 243 ft
Nearby Weather Stations

Elev 243 ft 32.61 °N, 93.88 °W | Updated 48 seconds ago

Partly Cloudy
Partly Cloudy
77.5 °F
Feels Like 79 °F
N
1.0
Wind Variable Wind from South
Gusts 8.0 mph

Today
High -- | Low -- °F
--% Chance of Precip.
Yesterday
High -- | Low -- °F
Precip. -- in
7:03 AM 7:35 PM
Waxing Gibbous, 94% visible
Pressure 29.88 in
Visibility 10.0 miles
Clouds Mostly Cloudy 5000 ft
Mostly Cloudy 8500 ft
Heat Index 79 °F
Dew Point 64 °F
Humidity 63%
Rainfall 0.00 in
Snow Depth Not available.
UV 0 out of 12
Pollen 10.70 out of 12
Air Quality Not available.
Flu Activity Not available.
METAR KDTN 012353Z AUTO 19016G22KT 10SM BKN050 BKN085 26/14 A2988 RMK AO2 SLP117 T02560144 10278 20244 55006

More Conditions Fewer Conditions

Pressure 29.88 in
Visibility 10.0 miles
Clouds Mostly Cloudy 5000 ft
Mostly Cloudy 8500 ft
Heat Index 79 °F
Dew Point 64 °F
Humidity 63%
Rainfall 0.00 in
Snow Depth Not available.
UV 0 out of 12
Pollen 10.70 out of 12
Air Quality Not available.
Flu Activity Not available.
METAR KDTN 012353Z AUTO 19016G22KT 10SM BKN050 BKN085 26/14 A2988 RMK AO2 SLP117 T02560144 10278 20244 55006

More Conditions Fewer Conditions

Nowcast | as of 7:06 PM CDT on April 1, 2015

Isolated to scattered showers and thunderstorms will move to the northeast across portions of the area over the next few hours. Rainfall amounts will vary from an inch...to several hundredths of an inch. Stronger storms could produce brief but heavy rainfall...and dangerous lightning.

×

10-Day Weather Forecast

Almanac

Astronomy

Apr. 01, 2015 Rise Set
Actual Time
Civil Twilight
Nautical Twilight
Astronomical Twilight
Moon
Length of Visible Light
Length of Day
Tomorrow will be .
, % of the Moon is Illuminated

Today's Extremes

State Highs State Lows

Community

WunderPhotos

Upload Photos

1,810,130 photos uploaded!

WunderBlogs® & News

Nearby

Air Quality

  Air Quality AQ Index Pollutant
Not available.

Snow Depth

Station Depth Elevation

Earthquake Activity

City Distance Mag. Time & Date
Minimum magnitude displayed is 2.5.

Coastal Water Temperatures

Place Temperature

Stations

Nearby Weather Stations

Station Location Temp. Windchill Dew Point Humidity Wind Precip. Elev Updated Type